Time;durP1;ratioP1;P1;durP2;ratioP2;P2;SDS_P1;SDS_P2;PMS_P1;PMS_P2;Temp;Humidity;BMP_temperature;BMP_pressure;BME280_temperature;BME280_humidity;BME280_pressure;Samples;Min_cycle;Max_cycle;Signal;HPM_P1;HPM_P2
2022/06/27 00:00:08;;;;;;;1.23;0.80;;;20.20;99.90;;;;;;5066441;28;20424;-91
2022/06/27 00:02:36;;;;;;;2.75;1.15;;;20.20;99.90;;;;;;5056427;28;20040;-89
2022/06/27 00:05:02;;;;;;;1.30;0.80;;;20.20;99.90;;;;;;5063294;28;20408;-89
2022/06/27 00:07:27;;;;;;;1.65;0.90;;;20.10;99.90;;;;;;5050807;28;20024;-89
2022/06/27 00:09:53;;;;;;;3.53;0.90;;;20.10;99.90;;;;;;5071948;28;20024;-89
2022/06/27 00:12:19;;;;;;;1.52;0.93;;;20.10;99.90;;;;;;5053191;28;20480;-89
2022/06/27 00:14:44;;;;;;;1.52;0.88;;;20.10;99.90;;;;;;5071640;28;20075;-91
2022/06/27 00:17:10;;;;;;;1.73;0.80;;;20.10;99.90;;;;;;5045803;28;20031;-91
2022/06/27 00:19:35;;;;;;;2.63;0.68;;;20.00;99.90;;;;;;5062572;28;20033;-89
2022/06/27 00:22:01;;;;;;;1.98;0.80;;;20.00;99.90;;;;;;5052603;28;20029;-91
2022/06/27 00:24:27;;;;;;;1.00;0.77;;;20.00;99.90;;;;;;5072328;28;20074;-91
2022/06/27 00:26:52;;;;;;;1.48;0.73;;;20.00;99.90;;;;;;5059332;28;20024;-91
2022/06/27 00:29:18;;;;;;;0.70;0.60;;;19.90;99.90;;;;;;5067782;28;20037;-91
2022/06/27 00:31:44;;;;;;;1.27;0.70;;;19.90;99.90;;;;;;5065263;28;20098;-91
2022/06/27 00:34:09;;;;;;;2.25;0.73;;;19.90;99.90;;;;;;5053506;28;20033;-91
2022/06/27 00:36:35;;;;;;;1.33;0.50;;;19.80;99.90;;;;;;5057238;28;20051;-91
2022/06/27 00:39:01;;;;;;;2.15;0.65;;;19.80;99.90;;;;;;5067400;28;20037;-90
2022/06/27 00:41:26;;;;;;;3.00;0.57;;;19.80;99.90;;;;;;5053832;28;20074;-90
2022/06/27 00:43:52;;;;;;;2.80;1.20;;;19.80;99.90;;;;;;5059624;28;20127;-91
2022/06/27 00:46:17;;;;;;;0.98;0.50;;;19.80;99.90;;;;;;5071317;28;20028;-90
2022/06/27 00:48:43;;;;;;;2.20;0.80;;;19.90;99.90;;;;;;5057753;28;20432;-91
2022/06/27 00:51:09;;;;;;;1.45;0.40;;;20.00;99.90;;;;;;5070296;28;20029;-92
2022/06/27 00:53:36;;;;;;;2.45;0.60;;;20.00;99.90;;;;;;5055298;28;20112;-90
2022/06/27 00:56:02;;;;;;;3.72;0.75;;;20.00;99.90;;;;;;5068710;28;20040;-91
2022/06/27 00:58:27;;;;;;;1.20;0.80;;;19.90;99.90;;;;;;5059306;28;20040;-91
2022/06/27 01:00:53;;;;;;;1.65;0.60;;;19.80;99.90;;;;;;5067507;28;20048;-91
2022/06/27 01:03:19;;;;;;;2.10;0.57;;;19.70;99.90;;;;;;5051376;28;20028;-91
2022/06/27 01:05:54;;;;;;;0.75;0.50;;;19.70;99.90;;;;;;5060148;28;20087;-91
2022/06/27 01:08:26;;;;;;;1.35;0.30;;;19.60;99.90;;;;;;5068078;28;20032;-91
2022/06/27 01:10:52;;;;;;;1.50;0.52;;;19.60;99.90;;;;;;5067228;28;20025;-91
2022/06/27 01:13:18;;;;;;;1.90;0.50;;;19.60;99.90;;;;;;5062576;28;20024;-91
2022/06/27 01:15:45;;;;;;;1.05;0.40;;;19.60;99.90;;;;;;5064441;28;20040;-91
2022/06/27 01:18:12;;;;;;;3.50;0.70;;;19.60;99.90;;;;;;5069911;28;20024;-91
2022/06/27 01:20:40;;;;;;;1.10;0.40;;;19.60;99.90;;;;;;5056309;28;20029;-91
2022/06/27 01:23:06;;;;;;;0.90;0.32;;;19.60;99.90;;;;;;5076006;28;20024;-91
2022/06/27 01:25:35;;;;;;;0.73;0.50;;;19.60;99.90;;;;;;5075059;28;20560;-91
2022/06/27 01:28:01;;;;;;;1.30;0.30;;;19.70;99.90;;;;;;5070267;28;20040;-91
2022/06/27 01:30:26;;;;;;;1.55;0.30;;;19.70;99.90;;;;;;5054984;28;20029;-91
2022/06/27 01:32:52;;;;;;;1.65;0.40;;;19.70;99.90;;;;;;5074898;28;20472;-91
2022/06/27 01:35:18;;;;;;;0.60;0.30;;;19.70;99.90;;;;;;5066297;28;20029;-92
2022/06/27 01:37:44;;;;;;;1.95;0.35;;;19.70;99.90;;;;;;5037441;28;20021;-91
2022/06/27 01:40:10;;;;;;;0.82;0.30;;;19.70;99.90;;;;;;5054960;28;20025;-91
2022/06/27 01:42:36;;;;;;;0.40;0.30;;;19.70;99.90;;;;;;5039193;28;20021;-90
2022/06/27 01:45:02;;;;;;;1.98;0.63;;;19.70;99.90;;;;;;5065551;28;20037;-91
2022/06/27 01:47:29;;;;;;;0.30;0.30;;;19.60;99.90;;;;;;5052873;28;20028;-90
2022/06/27 01:49:55;;;;;;;1.05;0.40;;;19.60;99.90;;;;;;5057793;28;20112;-91
2022/06/27 01:52:21;;;;;;;1.05;0.30;;;19.60;99.90;;;;;;5070181;28;20068;-90
2022/06/27 01:54:47;;;;;;;3.40;0.52;;;19.60;99.90;;;;;;5057945;28;20024;-91
2022/06/27 01:57:16;;;;;;;1.60;0.40;;;19.60;99.90;;;;;;5064091;28;20048;-91
2022/06/27 01:59:42;;;;;;;1.25;0.40;;;19.60;99.90;;;;;;5048239;28;20173;-91
2022/06/27 02:02:08;;;;;;;2.30;0.20;;;19.70;99.90;;;;;;5068158;28;20024;-90
2022/06/27 02:04:34;;;;;;;1.27;0.35;;;19.60;99.90;;;;;;5058345;28;20450;-91
2022/06/27 02:07:01;;;;;;;0.80;0.47;;;19.70;99.90;;;;;;5068355;28;20021;-91
2022/06/27 02:09:27;;;;;;;1.90;0.50;;;19.70;99.90;;;;;;5062469;28;20021;-90
2022/06/27 02:11:55;;;;;;;0.80;0.40;;;19.70;99.90;;;;;;5061203;28;20096;-91
2022/06/27 02:14:21;;;;;;;1.25;0.38;;;19.70;99.90;;;;;;5069769;28;20021;-90
2022/06/27 02:16:47;;;;;;;1.25;0.43;;;19.70;99.90;;;;;;5056616;28;20469;-91
2022/06/27 02:19:15;;;;;;;2.72;0.50;;;19.70;99.90;;;;;;5050380;28;20025;-91
2022/06/27 02:21:42;;;;;;;1.85;0.30;;;19.70;99.90;;;;;;5065115;28;20392;-91
2022/06/27 02:24:08;;;;;;;0.30;0.30;;;19.60;99.90;;;;;;5059283;28;20051;-91
2022/06/27 02:26:35;;;;;;;0.65;0.40;;;19.50;99.90;;;;;;5069930;28;20097;-91
2022/06/27 02:29:01;;;;;;;0.75;0.30;;;19.50;99.90;;;;;;5059549;28;20388;-91
2022/06/27 02:31:27;;;;;;;0.63;0.43;;;19.50;99.90;;;;;;5064245;28;20021;-90
2022/06/27 02:33:54;;;;;;;1.33;0.65;;;19.50;99.90;;;;;;5065033;28;20032;-91
2022/06/27 02:36:30;;;;;;;1.13;0.40;;;19.60;99.90;;;;;;5058466;28;20458;-91
2022/06/27 02:38:57;;;;;;;1.63;0.40;;;19.60;99.90;;;;;;5048557;28;20021;-91
2022/06/27 02:41:28;;;;;;;0.90;0.50;;;19.70;99.90;;;;;;5050079;28;20025;-91
2022/06/27 02:44:04;;;;;;;1.13;0.32;;;19.70;99.90;;;;;;5060244;28;20025;-90
2022/06/27 02:46:30;;;;;;;1.25;0.40;;;19.70;99.90;;;;;;5070205;28;20094;-91
2022/06/27 02:48:57;;;;;;;2.30;0.60;;;19.60;99.90;;;;;;5051804;28;20029;-89
2022/06/27 02:51:28;;;;;;;1.75;0.40;;;19.60;99.90;;;;;;5061135;28;20032;-91
2022/06/27 02:54:01;;;;;;;1.08;0.50;;;19.60;99.90;;;;;;5061316;28;20052;-91
2022/06/27 02:56:27;;;;;;;5.22;0.60;;;19.60;99.90;;;;;;5069546;28;20035;-91
2022/06/27 02:59:15;;;;;;;1.85;0.80;;;19.50;99.90;;;;;;5039536;28;20032;-91
2022/06/27 03:01:43;;;;;;;1.73;0.47;;;19.50;99.90;;;;;;5058693;28;20037;-91
2022/06/27 03:04:08;;;;;;;0.70;0.40;;;19.40;99.90;;;;;;5067325;28;20024;-91
2022/06/27 03:06:35;;;;;;;1.20;0.38;;;19.30;99.90;;;;;;5054136;28;20037;-91
2022/06/27 03:09:01;;;;;;;2.00;0.50;;;19.30;99.90;;;;;;5063771;28;20035;-91
2022/06/27 03:11:27;;;;;;;1.70;0.45;;;19.30;99.90;;;;;;5061455;28;20029;-91
2022/06/27 03:13:55;;;;;;;2.80;0.30;;;19.30;99.90;;;;;;5056688;28;20033;-91
2022/06/27 03:16:22;;;;;;;2.13;0.43;;;19.20;99.90;;;;;;5068827;28;20119;-91
2022/06/27 03:18:49;;;;;;;2.50;0.52;;;19.20;99.90;;;;;;5055145;28;20035;-91
2022/06/27 03:21:17;;;;;;;0.32;0.30;;;19.10;99.90;;;;;;5062621;28;20025;-91
2022/06/27 03:23:45;;;;;;;0.82;0.50;;;19.10;99.90;;;;;;5063243;28;20028;-91
2022/06/27 03:26:11;;;;;;;1.83;0.50;;;19.10;99.90;;;;;;5058708;28;20051;-91
2022/06/27 03:28:37;;;;;;;1.10;0.40;;;19.00;99.90;;;;;;5062534;28;20478;-90
2022/06/27 03:31:03;;;;;;;2.33;0.50;;;19.00;99.90;;;;;;5064026;28;20052;-92
2022/06/27 03:33:29;;;;;;;2.35;0.60;;;19.00;99.90;;;;;;5061676;28;20056;-92
2022/06/27 03:35:54;;;;;;;0.60;0.35;;;19.00;99.90;;;;;;5056133;28;20036;-91
2022/06/27 03:38:20;;;;;;;1.90;0.52;;;18.90;99.90;;;;;;5049263;28;20372;-92
2022/06/27 03:40:46;;;;;;;1.92;0.40;;;18.90;99.90;;;;;;5068378;28;20476;-91
2022/06/27 03:43:11;;;;;;;1.38;0.40;;;18.90;99.90;;;;;;5042475;28;20074;-91
2022/06/27 03:45:37;;;;;;;0.70;0.40;;;18.90;99.90;;;;;;5058635;28;20038;-90
2022/06/27 03:48:03;;;;;;;1.15;0.50;;;18.80;99.90;;;;;;5061338;28;20025;-93
2022/06/27 03:50:29;;;;;;;2.25;0.55;;;18.90;99.90;;;;;;5076777;28;20103;-92
2022/06/27 03:52:55;;;;;;;2.85;0.43;;;18.90;99.90;;;;;;5060250;28;20526;-91
2022/06/27 03:55:23;;;;;;;2.33;0.50;;;18.90;99.90;;;;;;5065203;28;20127;-91
2022/06/27 03:57:51;;;;;;;3.95;0.70;;;18.90;99.90;;;;;;5061924;28;20021;-91
2022/06/27 04:00:22;;;;;;;1.00;0.60;;;18.90;99.90;;;;;;5051757;28;20132;-92
2022/06/27 04:02:48;;;;;;;0.73;0.57;;;19.00;99.90;;;;;;5034602;28;20022;-92
2022/06/27 04:05:14;;;;;;;2.70;0.73;;;19.00;99.90;;;;;;5023855;28;20099;-91
2022/06/27 04:07:40;;;;;;;2.63;1.02;;;18.90;99.90;;;;;;5025968;28;20026;-92
2022/06/27 04:10:11;;;;;;;3.97;1.50;;;18.90;99.90;;;;;;5030229;28;20045;-90
2022/06/27 04:12:37;;;;;;;1.65;0.55;;;19.00;99.90;;;;;;5019407;28;20122;-91
2022/06/27 04:15:04;;;;;;;2.80;1.27;;;19.00;99.90;;;;;;5031231;28;20034;-92
2022/06/27 04:17:30;;;;;;;6.95;2.38;;;19.00;99.90;;;;;;5016203;28;20080;-92
2022/06/27 04:19:56;;;;;;;5.32;1.70;;;19.00;99.90;;;;;;5016821;28;20032;-91
2022/06/27 04:22:22;;;;;;;4.65;1.35;;;19.00;99.90;;;;;;5032169;28;20488;-91
2022/06/27 04:24:48;;;;;;;2.20;1.55;;;19.00;99.90;;;;;;5016031;28;20084;-91
2022/06/27 04:27:16;;;;;;;2.45;1.60;;;19.00;99.90;;;;;;5006499;28;20025;-91
2022/06/27 04:29:42;;;;;;;1.70;1.50;;;19.00;99.90;;;;;;5045954;28;20043;-92
2022/06/27 04:32:09;;;;;;;3.22;1.83;;;18.90;99.90;;;;;;5041345;28;20107;-91
2022/06/27 04:34:36;;;;;;;3.85;1.65;;;19.00;99.90;;;;;;5018157;28;20152;-91
2022/06/27 04:37:03;;;;;;;4.18;1.52;;;19.00;99.90;;;;;;4999573;28;20091;-93
2022/06/27 04:39:29;;;;;;;3.15;1.52;;;19.00;99.90;;;;;;5016378;28;20034;-92
2022/06/27 04:41:55;;;;;;;2.08;1.30;;;18.90;99.90;;;;;;5015844;28;20030;-91
2022/06/27 04:44:21;;;;;;;3.97;1.55;;;19.00;99.90;;;;;;5016483;28;20033;-91
2022/06/27 04:46:49;;;;;;;2.40;1.52;;;19.10;99.90;;;;;;5018550;28;20064;-91
2022/06/27 04:49:19;;;;;;;3.78;1.20;;;19.10;99.90;;;;;;5035903;28;20113;-91
2022/06/27 04:51:45;;;;;;;1.70;1.25;;;19.20;99.90;;;;;;5035488;28;20022;-91
2022/06/27 04:54:11;;;;;;;1.58;1.05;;;19.10;99.90;;;;;;5035855;28;20029;-91
2022/06/27 04:56:41;;;;;;;4.75;1.38;;;19.10;99.90;;;;;;5035638;28;20449;-91
2022/06/27 04:59:06;;;;;;;17.35;11.20;;;19.20;99.90;;;;;;5038107;28;20049;-91
2022/06/27 05:01:32;;;;;;;3.78;2.40;;;19.20;99.90;;;;;;5055318;28;20025;-91
2022/06/27 05:03:58;;;;;;;3.55;1.80;;;19.20;99.90;;;;;;5038252;28;20225;-91
2022/06/27 05:06:23;;;;;;;5.13;1.77;;;19.20;99.90;;;;;;5055399;28;20033;-91
2022/06/27 05:08:49;;;;;;;2.00;1.45;;;19.30;99.90;;;;;;5055966;28;20096;-91
2022/06/27 05:11:15;;;;;;;5.07;2.03;;;19.30;99.90;;;;;;5038959;28;20115;-91
2022/06/27 05:13:40;;;;;;;2.08;1.13;;;19.30;99.90;;;;;;5055843;28;20378;-91
2022/06/27 05:16:06;;;;;;;2.03;1.52;;;19.30;99.90;;;;;;5055999;28;20025;-91
2022/06/27 05:18:32;;;;;;;2.80;1.50;;;19.30;99.90;;;;;;5055188;28;20029;-93
2022/06/27 05:20:58;;;;;;;1.65;1.30;;;19.30;99.90;;;;;;5055932;28;20013;-92
2022/06/27 05:23:24;;;;;;;2.58;1.58;;;19.30;99.90;;;;;;5055361;28;20025;-92
2022/06/27 05:25:50;;;;;;;4.22;1.50;;;19.40;99.90;;;;;;5054847;28;20040;-92
2022/06/27 05:28:16;;;;;;;2.03;1.17;;;19.40;99.90;;;;;;5056315;28;20083;-92
2022/06/27 05:30:42;;;;;;;5.50;1.20;;;19.40;99.90;;;;;;5037995;28;20033;-93
2022/06/27 05:33:08;;;;;;;2.65;1.42;;;19.40;99.90;;;;;;5038715;28;20021;-92
2022/06/27 05:35:34;;;;;;;2.10;1.17;;;19.30;99.90;;;;;;5056370;28;20028;-92
2022/06/27 05:38:00;;;;;;;4.38;1.27;;;19.40;99.90;;;;;;5055968;28;20020;-92
2022/06/27 05:40:27;;;;;;;3.03;1.65;;;19.40;99.90;;;;;;5055072;28;20078;-93
2022/06/27 05:42:54;;;;;;;1.80;1.42;;;19.30;99.90;;;;;;5054772;28;20089;-92
2022/06/27 05:45:21;;;;;;;2.47;1.30;;;19.30;99.90;;;;;;5056033;28;20028;-93
2022/06/27 05:47:46;;;;;;;2.90;1.67;;;19.40;99.90;;;;;;5038192;28;20079;-93
2022/06/27 05:50:13;;;;;;;2.97;1.50;;;19.40;99.90;;;;;;5054962;28;20047;-91
2022/06/27 05:52:39;;;;;;;3.58;1.88;;;19.40;99.90;;;;;;5037684;28;20029;-91
2022/06/27 05:55:08;;;;;;;2.55;1.70;;;19.40;99.90;;;;;;5054576;28;20083;-92
2022/06/27 05:57:34;;;;;;;4.45;1.88;;;19.30;99.90;;;;;;5053818;28;20385;-91
2022/06/27 06:00:00;;;;;;;4.38;1.90;;;19.30;99.90;;;;;;5017514;28;20049;-92
2022/06/27 06:02:26;;;;;;;2.55;2.00;;;19.30;99.90;;;;;;5035974;28;20485;-92
2022/06/27 06:04:53;;;;;;;5.03;2.75;;;19.30;99.90;;;;;;5050330;28;20041;-91
2022/06/27 06:07:21;;;;;;;4.63;1.73;;;19.30;99.90;;;;;;5052235;28;20051;-90
2022/06/27 06:09:46;;;;;;;3.92;2.00;;;19.40;99.90;;;;;;5044593;28;20052;-91
2022/06/27 06:12:12;;;;;;;3.78;1.60;;;19.30;99.90;;;;;;5033480;28;20063;-91
2022/06/27 06:14:38;;;;;;;3.03;1.73;;;19.40;99.90;;;;;;5039147;28;20026;-90
2022/06/27 06:17:05;;;;;;;2.53;1.90;;;19.40;99.90;;;;;;5037693;28;20032;-91
2022/06/27 06:19:32;;;;;;;4.20;2.38;;;19.40;99.90;;;;;;5046830;28;20132;-91
2022/06/27 06:21:58;;;;;;;3.45;2.85;;;19.40;99.90;;;;;;5050269;28;20029;-92
2022/06/27 06:24:24;;;;;;;4.53;2.35;;;19.40;99.90;;;;;;5044985;28;20032;-91
2022/06/27 06:26:56;;;;;;;3.20;2.08;;;19.50;99.90;;;;;;5029281;28;20036;-91
2022/06/27 06:29:22;;;;;;;4.50;2.50;;;19.50;99.90;;;;;;5031626;28;20037;-92
2022/06/27 06:31:48;;;;;;;4.68;2.20;;;19.60;99.90;;;;;;5051303;28;20025;-92
2022/06/27 06:34:15;;;;;;;3.95;2.03;;;19.60;99.90;;;;;;5053212;28;20031;-91
2022/06/27 06:36:42;;;;;;;5.85;2.40;;;19.70;99.90;;;;;;5052375;28;20051;-90
2022/06/27 06:39:09;;;;;;;5.88;2.42;;;19.60;99.90;;;;;;5052991;28;20024;-91
2022/06/27 06:41:36;;;;;;;3.63;2.70;;;19.60;99.90;;;;;;5046729;28;20060;-90
2022/06/27 06:44:05;;;;;;;4.15;2.22;;;19.60;99.90;;;;;;5039385;28;20134;-90
2022/06/27 06:46:35;;;;;;;9.20;2.55;;;19.60;99.90;;;;;;5048767;28;20036;-90
2022/06/27 06:49:06;;;;;;;3.03;2.50;;;19.60;99.90;;;;;;5053528;28;20099;-90
2022/06/27 06:51:42;;;;;;;5.03;2.50;;;19.60;99.90;;;;;;5051027;28;20029;-90
2022/06/27 06:54:09;;;;;;;5.60;2.63;;;19.60;99.90;;;;;;5052760;28;20036;-90
2022/06/27 06:56:36;;;;;;;3.60;2.80;;;19.60;99.90;;;;;;5053492;28;20430;-90
2022/06/27 06:59:03;;;;;;;4.85;2.60;;;19.70;99.90;;;;;;5051897;28;20095;-90
2022/06/27 07:01:33;;;;;;;3.28;2.45;;;19.70;99.90;;;;;;5052183;28;20059;-90
2022/06/27 07:03:59;;;;;;;3.95;2.67;;;19.70;99.90;;;;;;5042750;28;20519;-91
2022/06/27 07:06:26;;;;;;;4.45;2.80;;;19.70;99.90;;;;;;5052200;28;20033;-91
2022/06/27 07:08:57;;;;;;;3.55;2.63;;;19.70;99.90;;;;;;5051877;28;20492;-91
2022/06/27 07:11:34;;;;;;;3.80;2.50;;;19.80;99.90;;;;;;5052346;28;20071;-91
2022/06/27 07:14:00;;;;;;;2.63;2.28;;;19.80;99.90;;;;;;5030303;28;20472;-90
2022/06/27 07:16:26;;;;;;;2.88;2.63;;;19.90;99.90;;;;;;5052354;28;20037;-91
2022/06/27 07:18:57;;;;;;;6.13;3.65;;;19.90;99.90;;;;;;5051658;28;20025;-90
2022/06/27 07:21:26;;;;;;;5.90;2.85;;;20.00;99.90;;;;;;5052404;28;20378;-90
2022/06/27 07:23:52;;;;;;;7.22;3.70;;;20.00;99.90;;;;;;5050767;28;20040;-90
2022/06/27 07:26:19;;;;;;;5.60;3.13;;;20.10;99.90;;;;;;5052187;28;20124;-91
2022/06/27 07:28:45;;;;;;;5.78;3.20;;;20.00;99.90;;;;;;5051500;28;20542;-91
2022/06/27 07:31:12;;;;;;;4.65;3.13;;;20.00;99.90;;;;;;5052244;28;20117;-91
2022/06/27 07:33:45;;;;;;;6.38;3.13;;;20.00;99.90;;;;;;5051477;28;20111;-91
2022/06/27 07:36:18;;;;;;;5.72;3.33;;;19.90;99.90;;;;;;5052160;28;20044;-91
2022/06/27 07:38:49;;;;;;;5.57;3.80;;;19.90;99.90;;;;;;5048889;28;20033;-91
2022/06/27 07:41:19;;;;;;;5.68;3.42;;;19.90;99.90;;;;;;5052226;28;20024;-91
2022/06/27 07:43:46;;;;;;;4.38;3.75;;;20.00;99.90;;;;;;5043850;28;20039;-90
2022/06/27 07:46:12;;;;;;;4.57;3.80;;;20.00;99.90;;;;;;5051962;28;20043;-91
2022/06/27 07:48:38;;;;;;;6.80;4.07;;;19.90;99.90;;;;;;5033231;28;20022;-90
2022/06/27 07:51:04;;;;;;;9.02;4.70;;;19.90;99.90;;;;;;5032472;28;20026;-91
2022/06/27 07:53:30;;;;;;;5.40;3.95;;;19.90;99.90;;;;;;5033730;28;20470;-91
2022/06/27 07:55:58;;;;;;;4.93;4.20;;;20.00;99.90;;;;;;5032216;28;20484;-91
2022/06/27 07:58:35;;;;;;;6.07;4.15;;;20.00;99.90;;;;;;5039163;28;20432;-92
2022/06/27 08:01:07;;;;;;;5.00;4.32;;;20.10;99.90;;;;;;5045932;28;20048;-92
2022/06/27 08:03:39;;;;;;;6.65;4.10;;;20.10;99.90;;;;;;5035339;28;20037;-91
2022/06/27 08:06:08;;;;;;;7.65;4.40;;;20.00;99.90;;;;;;5049911;28;20479;-90
2022/06/27 08:08:36;;;;;;;7.57;4.43;;;20.10;99.90;;;;;;5039211;28;20033;-90
2022/06/27 08:11:02;;;;;;;6.95;4.28;;;20.00;99.90;;;;;;5051557;28;20029;-93
2022/06/27 08:13:28;;;;;;;6.18;4.28;;;20.10;99.90;;;;;;5047579;28;20024;-90
2022/06/27 08:15:55;;;;;;;5.97;4.00;;;20.10;99.90;;;;;;5051391;28;20025;-92
2022/06/27 08:18:20;;;;;;;8.23;4.53;;;20.10;99.90;;;;;;5054687;28;20373;-92
2022/06/27 08:20:46;;;;;;;5.85;4.55;;;20.10;99.90;;;;;;5049606;28;20029;-91
2022/06/27 08:23:15;;;;;;;6.13;4.32;;;20.20;99.90;;;;;;5060216;28;20036;-91
2022/06/27 08:25:42;;;;;;;7.68;4.85;;;20.20;99.90;;;;;;5064092;28;20033;-90
2022/06/27 08:28:11;;;;;;;6.47;4.93;;;20.30;99.90;;;;;;5043908;28;20117;-91
2022/06/27 08:30:38;;;;;;;5.85;4.80;;;20.40;99.90;;;;;;5042159;28;20033;-92
2022/06/27 08:33:04;;;;;;;7.13;4.53;;;20.50;99.90;;;;;;5045375;28;20075;-91
2022/06/27 08:35:30;;;;;;;6.18;5.07;;;20.50;99.90;;;;;;5043795;28;20030;-92
2022/06/27 08:37:58;;;;;;;6.18;4.65;;;20.40;99.90;;;;;;5056676;28;20056;-89
2022/06/27 08:40:26;;;;;;;6.85;4.60;;;20.40;99.90;;;;;;5053948;28;20029;-89
2022/06/27 08:42:55;;;;;;;6.78;5.32;;;20.40;99.90;;;;;;5050625;28;20477;-89
2022/06/27 08:45:24;;;;;;;6.22;4.70;;;20.40;99.90;;;;;;5057697;28;20029;-88
2022/06/27 08:48:06;;;;;;;5.97;4.65;;;20.40;99.90;;;;;;5050225;28;20470;-88
2022/06/27 08:50:34;;;;;;;6.97;5.05;;;20.30;99.90;;;;;;5064785;28;20116;-92
2022/06/27 08:53:01;;;;;;;6.80;4.97;;;20.30;99.90;;;;;;5063181;28;20051;-91
2022/06/27 08:55:27;;;;;;;8.82;5.10;;;20.30;99.90;;;;;;5063945;28;20032;-91
2022/06/27 08:57:52;;;;;;;8.60;5.97;;;20.30;99.90;;;;;;5064119;28;20021;-90
2022/06/27 09:00:19;;;;;;;9.65;5.47;;;20.30;99.90;;;;;;5037522;28;20054;-91
2022/06/27 09:02:44;;;;;;;6.85;5.45;;;20.50;99.90;;;;;;5020256;28;20033;-91
2022/06/27 09:05:16;;;;;;;9.23;5.53;;;20.40;99.90;;;;;;5043523;28;20041;-90
2022/06/27 09:07:49;;;;;;;;;;;20.40;99.90;;;;;;5049117;28;20205;-90
2022/06/27 09:10:26;;;;;;;9.88;5.10;;;20.30;99.90;;;;;;5041503;28;19996;-92
2022/06/27 09:12:55;;;;;;;9.82;5.90;;;20.30;99.90;;;;;;5023954;28;20032;-93
2022/06/27 09:15:24;;;;;;;7.85;5.30;;;20.20;99.90;;;;;;5037813;28;20025;-91
2022/06/27 09:18:02;;;;;;;9.48;5.35;;;20.20;99.90;;;;;;5045775;28;20049;-93
2022/06/27 09:20:50;;;;;;;8.45;6.63;;;20.10;99.90;;;;;;5037691;28;20091;-89
2022/06/27 09:23:39;;;;;;;9.68;6.20;;;20.10;99.90;;;;;;5044455;28;20069;-91
2022/06/27 09:26:26;;;;;;;9.75;5.85;;;20.10;99.90;;;;;;5035587;28;20462;-91
2022/06/27 09:29:03;;;;;;;9.57;6.25;;;20.10;99.90;;;;;;5040207;28;20040;-92
2022/06/27 09:31:33;;;;;;;7.88;5.55;;;20.20;99.90;;;;;;5032805;28;20120;-92
2022/06/27 09:34:21;;;;;;;12.60;6.18;;;20.30;99.90;;;;;;5046161;28;20013;-92
2022/06/27 09:36:56;;;;;;;9.57;5.95;;;20.40;99.90;;;;;;5056987;28;20029;-91
2022/06/27 09:39:39;;;;;;;9.60;6.03;;;20.50;99.90;;;;;;5047134;28;20059;-91
2022/06/27 09:42:08;;;;;;;6.55;5.28;;;20.70;99.90;;;;;;5041130;28;20022;-92
2022/06/27 09:44:38;;;;;;;9.80;5.38;;;20.70;99.90;;;;;;5037940;28;20044;-91
2022/06/27 09:47:15;;;;;;;8.93;5.97;;;20.70;99.90;;;;;;5041041;28;20470;-91
2022/06/27 09:49:43;;;;;;;6.88;5.75;;;20.70;99.90;;;;;;5030729;28;20029;-93
2022/06/27 09:52:14;;;;;;;8.75;5.60;;;20.70;99.90;;;;;;5033301;28;20025;-92
2022/06/27 09:54:42;;;;;;;8.13;6.07;;;20.70;99.90;;;;;;5033997;28;20030;-92
2022/06/27 09:57:09;;;;;;;7.90;5.90;;;21.00;99.90;;;;;;5035179;28;20552;-92
2022/06/27 09:59:37;;;;;;;8.30;5.25;;;21.00;99.90;;;;;;5034276;28;20053;-92
2022/06/27 10:02:04;;;;;;;8.80;5.22;;;21.20;99.90;;;;;;5053728;28;20029;-92
2022/06/27 10:04:31;;;;;;;7.78;5.28;;;21.30;99.90;;;;;;5054829;28;20025;-89
2022/06/27 10:07:02;;;;;;;7.05;4.57;;;21.20;99.90;;;;;;5074771;28;20029;-89
2022/06/27 10:09:29;;;;;;;6.63;4.63;;;21.10;99.90;;;;;;5065157;28;20485;-90
2022/06/27 10:12:23;;;;;;;9.35;4.72;;;21.00;99.90;;;;;;5064132;28;20339;-90
2022/06/27 10:15:10;;;;;;;8.07;4.45;;;21.00;99.90;;;;;;5049933;28;20052;-90
2022/06/27 10:17:46;;;;;;;7.07;4.45;;;21.00;99.90;;;;;;5065170;28;20035;-92
2022/06/27 10:20:25;;;;;;;9.10;4.57;;;21.00;99.90;;;;;;5064444;28;20029;-91
2022/06/27 10:23:03;;;;;;;6.32;4.60;;;21.10;99.90;;;;;;5056020;28;20025;-91
2022/06/27 10:25:31;;;;;;;8.23;4.80;;;21.00;99.90;;;;;;5065040;28;20041;-93
2022/06/27 10:30:47;;;;;;;6.43;4.47;;;21.20;99.90;;;;;;5063696;28;20112;-91
2022/06/27 10:33:22;;;;;;;5.80;4.65;;;21.30;99.90;;;;;;5066237;28;20384;-91
2022/06/27 10:36:04;;;;;;;7.43;4.63;;;21.50;99.90;;;;;;5056171;28;20083;-92
2022/06/27 10:38:38;;;;;;;7.32;4.10;;;21.50;99.90;;;;;;5062564;28;20032;-92
2022/06/27 10:41:20;;;;;;;7.20;4.70;;;21.40;99.90;;;;;;5065602;28;20051;-91
2022/06/27 10:43:48;;;;;;;;;;;21.30;99.90;;;;;;5067811;28;20025;-90
2022/06/27 10:46:19;;;;;;;8.75;4.95;;;21.30;99.90;;;;;;5066420;28;19912;-90
2022/06/27 10:48:53;;;;;;;7.55;5.50;;;21.20;99.90;;;;;;5056651;28;20032;-90
2022/06/27 10:51:26;;;;;;;13.52;10.10;;;21.10;99.90;;;;;;5063115;28;20130;-90
2022/06/27 10:54:38;;;;;;;6.65;5.22;;;21.00;99.90;;;;;;5061221;28;20073;-90
2022/06/27 10:57:04;;;;;;;10.15;5.07;;;20.90;99.90;;;;;;5038604;28;20055;-92
2022/06/27 10:59:49;;;;;;;9.68;5.10;;;20.80;99.90;;;;;;5057148;28;20052;-92
2022/06/27 11:02:18;;;;;;;8.07;4.78;;;20.80;99.90;;;;;;5035983;28;20029;-92
2022/06/27 11:04:45;;;;;;;8.77;5.05;;;20.80;99.90;;;;;;5057778;28;20021;-91
2022/06/27 11:07:11;;;;;;;7.35;5.15;;;20.80;99.90;;;;;;5057194;28;20025;-91
2022/06/27 11:09:43;;;;;;;9.82;5.57;;;20.80;99.90;;;;;;5056704;28;20519;-91
2022/06/27 11:12:10;;;;;;;13.30;5.82;;;20.80;99.90;;;;;;5056343;28;20025;-91
2022/06/27 11:14:51;;;;;;;12.38;5.60;;;20.80;99.90;;;;;;5058935;28;20024;-92
2022/06/27 11:17:45;;;;;;;8.98;5.95;;;20.80;99.90;;;;;;5068729;28;20029;-91
2022/06/27 11:20:20;;;;;;;9.55;5.68;;;20.80;99.90;;;;;;5058157;28;20032;-92
2022/06/27 11:23:12;;;;;;;;;;;;;;;;;;;;;
2022/06/27 11:25:57;;;;;;;;;;;;;;;;;;;;;
2022/06/27 11:32:07;;;;;;;8.02;5.63;;;21.30;99.90;;;;;;5057444;28;20032;-91
2022/06/27 11:34:35;;;;;;;8.57;5.25;;;21.60;99.90;;;;;;5029042;28;20033;-92
2022/06/27 11:37:07;;;;;;;8.95;5.65;;;21.60;99.90;;;;;;5061668;28;20025;-93
2022/06/27 11:39:34;;;;;;;7.38;4.85;;;21.70;99.90;;;;;;5066995;28;20033;-93
2022/06/27 11:42:09;;;;;;;8.82;4.82;;;21.80;99.90;;;;;;5056523;28;20025;-93
2022/06/27 11:44:37;;;;;;;9.35;4.88;;;21.90;99.90;;;;;;5074636;28;20040;-92
2022/06/27 11:47:08;;;;;;;7.55;4.85;;;21.60;99.90;;;;;;5041700;28;20382;-92
2022/06/27 11:49:40;;;;;;;;;;;21.60;99.90;;;;;;5040919;28;20089;-92
2022/06/27 11:52:08;;;;;;;5.82;3.88;;;21.70;99.90;;;;;;5056732;28;19911;-92
2022/06/27 11:54:45;;;;;;;5.10;3.78;;;21.60;99.90;;;;;;5067129;28;20029;-93
2022/06/27 11:57:32;;;;;;;4.55;3.70;;;21.60;99.90;;;;;;5062001;28;20037;-93
2022/06/27 12:00:00;;;;;;;4.93;3.85;;;21.50;99.90;;;;;;5016565;28;20763;-92
2022/06/27 12:02:27;;;;;;;5.10;3.75;;;21.50;99.90;;;;;;5050243;28;20124;-93
2022/06/27 12:05:10;;;;;;;6.97;4.18;;;21.70;99.90;;;;;;5024734;28;20022;-92
2022/06/27 12:07:58;;;;;;;6.20;4.00;;;21.90;99.90;;;;;;5016892;28;20125;-92
2022/06/27 12:10:41;;;;;;;5.80;3.42;;;22.20;99.90;;;;;;5019783;28;20056;-92
2022/06/27 12:13:15;;;;;;;6.05;4.18;;;22.50;99.90;;;;;;5033795;28;20028;-92
2022/06/27 12:15:44;;;;;;;6.50;3.50;;;22.80;99.90;;;;;;5044050;28;20033;-91
2022/06/27 12:18:12;;;;;;;5.13;3.25;;;22.90;99.90;;;;;;5061991;28;20382;-92
2022/06/27 12:20:39;;;;;;;4.90;3.30;;;22.90;99.90;;;;;;5033437;28;20026;-92
2022/06/27 12:23:05;;;;;;;5.00;3.00;;;22.90;99.90;;;;;;5018531;28;20086;-93
2022/06/27 12:25:31;;;;;;;6.80;3.45;;;22.70;99.90;;;;;;5013937;28;20582;-92
2022/06/27 12:27:57;;;;;;;3.35;2.70;;;22.60;99.90;;;;;;5022379;28;20451;-92
2022/06/27 12:30:25;;;;;;;4.03;3.15;;;22.50;99.90;;;;;;5040096;28;20124;-92
2022/06/27 12:32:51;;;;;;;2.88;2.40;;;22.40;99.90;;;;;;5060184;28;20021;-92
2022/06/27 12:35:16;;;;;;;5.28;2.55;;;22.30;99.90;;;;;;5060647;28;20033;-91
2022/06/27 12:37:42;;;;;;;4.38;2.83;;;22.20;99.90;;;;;;5045609;28;20037;-91
2022/06/27 12:40:10;;;;;;;2.88;2.45;;;22.20;99.90;;;;;;5027750;28;20063;-91
2022/06/27 12:42:36;;;;;;;3.17;2.40;;;22.10;99.90;;;;;;5020693;28;20030;-91
2022/06/27 12:45:01;;;;;;;4.57;2.40;;;22.20;99.90;;;;;;5025147;28;20036;-91
2022/06/27 12:47:29;;;;;;;3.47;2.25;;;22.20;99.90;;;;;;5023479;28;20059;-92
2022/06/27 12:49:55;;;;;;;4.10;2.30;;;22.10;99.90;;;;;;5027108;28;20030;-91
2022/06/27 12:52:20;;;;;;;3.20;2.00;;;22.00;99.90;;;;;;5020321;28;20096;-93
2022/06/27 12:54:46;;;;;;;2.50;2.08;;;22.00;99.90;;;;;;5019370;28;20121;-91
2022/06/27 12:57:14;;;;;;;2.67;2.47;;;21.90;99.90;;;;;;5010057;28;20041;-92
2022/06/27 12:59:43;;;;;;;3.75;2.05;;;21.90;99.90;;;;;;5042715;28;20048;-92
2022/06/27 13:02:10;;;;;;;2.15;1.95;;;21.90;99.90;;;;;;5066542;28;20035;-93
2022/06/27 13:04:38;;;;;;;3.10;1.80;;;21.80;99.90;;;;;;5069792;28;20028;-93